Time;durP1;ratioP1;P1;durP2;ratioP2;P2;SDS_P1;SDS_P2;PMS_P1;PMS_P2;Temp;Humidity;BMP_temperature;BMP_pressure;BME280_temperature;BME280_humidity;BME280_pressure;Samples;Min_cycle;Max_cycle;Signal;HPM_P1;HPM_P2
2023/03/04 00:01:42;;;;;;;0.65;0.30;;;18.20;29.50;;;;;;4937400;29;20213;-83
2023/03/04 00:04:10;;;;;;;1.10;0.40;;;18.10;29.50;;;;;;4906243;29;20574;-83
2023/03/04 00:06:35;;;;;;;0.20;0.20;;;18.20;29.60;;;;;;4905681;29;20228;-83
2023/03/04 00:09:02;;;;;;;0.30;0.20;;;18.20;29.60;;;;;;4905414;29;20647;-83
2023/03/04 00:11:28;;;;;;;0.65;0.20;;;18.20;29.60;;;;;;4905807;29;20182;-84
2023/03/04 00:13:55;;;;;;;0.43;0.20;;;18.10;29.50;;;;;;4905512;29;20178;-83
2023/03/04 00:16:20;;;;;;;0.82;0.45;;;18.10;29.60;;;;;;4921596;29;20166;-83
2023/03/04 00:18:46;;;;;;;0.30;0.30;;;18.10;29.50;;;;;;4905205;29;20256;-84
2023/03/04 00:21:15;;;;;;;0.93;0.30;;;18.10;29.60;;;;;;4905519;29;20232;-84
2023/03/04 00:23:42;;;;;;;0.60;0.30;;;18.10;29.60;;;;;;4906103;29;20256;-83
2023/03/04 00:26:08;;;;;;;1.25;0.20;;;18.10;29.60;;;;;;4905436;29;20174;-84
2023/03/04 00:28:38;;;;;;;0.38;0.30;;;18.10;29.60;;;;;;4904956;29;20253;-83
2023/03/04 00:31:05;;;;;;;0.25;0.20;;;18.10;29.60;;;;;;4905387;29;20174;-83
2023/03/04 00:33:31;;;;;;;1.63;0.50;;;18.10;29.70;;;;;;4937936;29;20189;-83
2023/03/04 00:35:57;;;;;;;0.85;0.40;;;18.00;29.60;;;;;;4904732;29;20174;-84
2023/03/04 00:38:22;;;;;;;0.57;0.30;;;18.10;29.70;;;;;;4904615;29;20178;-84
2023/03/04 00:40:48;;;;;;;0.63;0.35;;;18.10;29.70;;;;;;4920780;29;20155;-83
2023/03/04 00:43:14;;;;;;;1.58;0.20;;;18.10;29.70;;;;;;4936689;29;20169;-84
2023/03/04 00:45:45;;;;;;;0.40;0.30;;;18.10;29.70;;;;;;4904515;29;20174;-83
2023/03/04 00:48:10;;;;;;;1.10;0.40;;;18.00;29.70;;;;;;4936020;29;20166;-84
2023/03/04 00:50:36;;;;;;;0.35;0.20;;;18.10;29.70;;;;;;4905176;29;20189;-83
2023/03/04 00:53:02;;;;;;;0.95;0.30;;;18.10;29.70;;;;;;4904955;29;20225;-83
2023/03/04 00:55:28;;;;;;;0.30;0.20;;;18.10;29.70;;;;;;4905004;29;20638;-83
2023/03/04 00:57:54;;;;;;;0.43;0.20;;;18.00;29.70;;;;;;4920670;29;20352;-83
2023/03/04 01:00:21;;;;;;;0.35;0.28;;;18.10;29.80;;;;;;4904626;29;20245;-83
2023/03/04 01:02:47;;;;;;;0.50;0.20;;;18.00;29.70;;;;;;4920655;29;20225;-84
2023/03/04 01:05:14;;;;;;;0.73;0.20;;;18.00;30.00;;;;;;4904549;29;20182;-83
2023/03/04 01:07:40;;;;;;;0.32;0.22;;;18.00;29.80;;;;;;4936315;29;20245;-83
2023/03/04 01:10:06;;;;;;;0.40;0.20;;;18.00;29.80;;;;;;4920331;29;20197;-83
2023/03/04 01:12:33;;;;;;;0.90;0.30;;;18.00;29.80;;;;;;4904360;29;20205;-83
2023/03/04 01:14:58;;;;;;;0.52;0.38;;;18.00;29.80;;;;;;4904648;29;20177;-83
2023/03/04 01:17:24;;;;;;;0.20;0.20;;;18.00;29.90;;;;;;4904226;29;20654;-84
2023/03/04 01:19:50;;;;;;;0.88;0.20;;;18.00;29.90;;;;;;4919998;29;20154;-83
2023/03/04 01:22:17;;;;;;;0.10;0.10;;;18.00;29.90;;;;;;4904311;29;20181;-83
2023/03/04 01:24:44;;;;;;;1.42;0.30;;;18.00;29.90;;;;;;4904795;29;20181;-83
2023/03/04 01:27:10;;;;;;;0.73;0.22;;;18.00;29.90;;;;;;4920322;29;20258;-83
2023/03/04 01:29:38;;;;;;;2.20;0.30;;;18.00;29.90;;;;;;4903849;29;20174;-84
2023/03/04 01:32:04;;;;;;;0.50;0.30;;;18.00;29.90;;;;;;4920180;29;20681;-84
2023/03/04 01:34:30;;;;;;;0.73;0.30;;;18.00;29.90;;;;;;4904767;29;20264;-83
2023/03/04 01:37:00;;;;;;;0.95;0.28;;;18.00;30.00;;;;;;4919635;29;20188;-83
2023/03/04 01:39:26;;;;;;;0.95;0.40;;;18.00;30.00;;;;;;4935696;29;20245;-83
2023/03/04 01:41:52;;;;;;;0.50;0.30;;;18.00;30.00;;;;;;4919989;29;20186;-83
2023/03/04 01:44:19;;;;;;;0.47;0.30;;;18.00;30.00;;;;;;4904189;29;20188;-84
2023/03/04 01:46:48;;;;;;;0.50;0.25;;;17.90;29.90;;;;;;4919782;29;20204;-84
2023/03/04 01:49:14;;;;;;;0.77;0.20;;;17.90;30.00;;;;;;4919843;29;20167;-83
2023/03/04 01:51:42;;;;;;;0.30;0.28;;;18.00;30.00;;;;;;4919662;29;20212;-83
2023/03/04 01:54:08;;;;;;;0.98;0.50;;;18.00;30.00;;;;;;4935429;29;20221;-83
2023/03/04 01:56:35;;;;;;;0.40;0.20;;;17.90;30.00;;;;;;4919737;29;20709;-83
2023/03/04 01:59:08;;;;;;;0.60;0.20;;;17.90;30.00;;;;;;4920033;29;20167;-83
2023/03/04 02:01:38;;;;;;;0.28;0.20;;;17.90;30.00;;;;;;4904654;29;20174;-83
2023/03/04 02:04:05;;;;;;;0.25;0.25;;;17.90;30.00;;;;;;4904922;29;20685;-83
2023/03/04 02:06:31;;;;;;;0.20;0.20;;;17.90;30.00;;;;;;4920420;29;20243;-83
2023/03/04 02:08:57;;;;;;;0.30;0.20;;;17.90;30.00;;;;;;4920337;29;20186;-83
2023/03/04 02:11:22;;;;;;;1.30;0.30;;;17.90;30.00;;;;;;4936977;29;20162;-83
2023/03/04 02:13:51;;;;;;;0.35;0.25;;;17.90;30.00;;;;;;4907294;29;20204;-83
2023/03/04 02:16:18;;;;;;;0.65;0.20;;;17.90;30.00;;;;;;4907694;29;20202;-84
2023/03/04 02:18:43;;;;;;;0.63;0.30;;;17.90;30.00;;;;;;4923455;29;20166;-84
2023/03/04 02:21:22;;;;;;;0.63;0.30;;;17.90;30.10;;;;;;4908003;29;20329;-84
2023/03/04 02:23:58;;;;;;;1.27;0.28;;;17.90;30.10;;;;;;4923887;29;20181;-83
2023/03/04 02:26:26;;;;;;;0.73;0.40;;;17.90;30.10;;;;;;4923619;29;20158;-83
2023/03/04 02:28:55;;;;;;;0.20;0.20;;;17.90;30.10;;;;;;4923272;29;20194;-83
2023/03/04 02:31:27;;;;;;;0.30;0.20;;;17.90;30.10;;;;;;4908048;29;20538;-83
2023/03/04 02:34:09;;;;;;;1.08;0.38;;;17.90;30.10;;;;;;4907877;29;20166;-84
2023/03/04 02:36:36;;;;;;;0.80;0.20;;;17.90;30.10;;;;;;4938948;29;20166;-83
2023/03/04 02:39:05;;;;;;;0.65;0.45;;;17.90;30.10;;;;;;4922812;29;20209;-83
2023/03/04 02:41:30;;;;;;;1.75;0.20;;;17.90;30.10;;;;;;4907248;29;20265;-83
2023/03/04 02:43:56;;;;;;;0.25;0.25;;;17.90;30.10;;;;;;4907211;29;20632;-83
2023/03/04 02:46:23;;;;;;;0.82;0.13;;;17.80;30.10;;;;;;4923140;29;20170;-84
2023/03/04 02:48:49;;;;;;;1.30;0.30;;;17.90;30.10;;;;;;4923054;29;20181;-83
2023/03/04 02:51:18;;;;;;;0.20;0.15;;;17.90;30.20;;;;;;4907706;29;20182;-83
2023/03/04 02:53:44;;;;;;;1.05;0.40;;;17.90;30.20;;;;;;4922971;29;20629;-83
2023/03/04 02:56:10;;;;;;;0.17;0.17;;;17.90;30.20;;;;;;4908568;29;20193;-83
2023/03/04 02:58:37;;;;;;;0.88;0.10;;;17.80;30.20;;;;;;4910456;29;20207;-84
2023/03/04 03:01:04;;;;;;;0.35;0.25;;;17.80;30.20;;;;;;4910312;29;20273;-82
2023/03/04 03:03:32;;;;;;;0.13;0.13;;;17.80;30.20;;;;;;4925764;29;20641;-83
2023/03/04 03:05:58;;;;;;;0.20;0.20;;;17.90;30.20;;;;;;4910042;29;20639;-83
2023/03/04 03:08:24;;;;;;;0.20;0.20;;;17.80;30.20;;;;;;4909552;29;20665;-83
2023/03/04 03:10:50;;;;;;;0.68;0.30;;;17.90;30.30;;;;;;4910068;29;20181;-83
2023/03/04 03:13:15;;;;;;;0.40;0.30;;;17.80;30.20;;;;;;4909677;29;20257;-84
2023/03/04 03:15:41;;;;;;;0.28;0.20;;;17.80;30.20;;;;;;4909863;29;20170;-83
2023/03/04 03:18:09;;;;;;;1.38;0.30;;;17.80;30.20;;;;;;4909862;29;20244;-83
2023/03/04 03:20:35;;;;;;;0.20;0.20;;;17.80;30.20;;;;;;4909969;29;20176;-83
2023/03/04 03:23:00;;;;;;;0.60;0.20;;;17.80;30.30;;;;;;4909685;29;20602;-84
2023/03/04 03:25:26;;;;;;;0.35;0.20;;;17.80;30.20;;;;;;4909909;29;20169;-84
2023/03/04 03:27:52;;;;;;;0.20;0.13;;;17.80;30.20;;;;;;4924950;29;20164;-84
2023/03/04 03:30:18;;;;;;;1.13;0.30;;;17.80;30.30;;;;;;4941045;29;20166;-83
2023/03/04 03:32:43;;;;;;;0.60;0.32;;;17.80;30.30;;;;;;4909685;29;20552;-84
2023/03/04 03:35:10;;;;;;;0.30;0.20;;;17.80;30.30;;;;;;4940645;29;20153;-84
2023/03/04 03:37:39;;;;;;;0.65;0.20;;;17.80;30.30;;;;;;4909359;29;20177;-84
2023/03/04 03:40:12;;;;;;;1.20;0.20;;;17.80;30.40;;;;;;4910071;29;20677;-84
2023/03/04 03:42:38;;;;;;;0.10;0.10;;;17.80;30.40;;;;;;4940188;29;20603;-83
2023/03/04 03:45:04;;;;;;;0.43;0.22;;;17.80;31.10;;;;;;4908869;29;20174;-83
2023/03/04 03:47:31;;;;;;;0.17;0.17;;;17.80;30.40;;;;;;4909160;29;20269;-84
2023/03/04 03:49:58;;;;;;;0.70;0.40;;;17.80;30.50;;;;;;4909062;29;20175;-84
2023/03/04 03:52:23;;;;;;;0.20;0.10;;;17.80;30.50;;;;;;4924564;29;20666;-83
2023/03/04 03:54:49;;;;;;;0.25;0.20;;;17.70;30.40;;;;;;4909476;29;20181;-84
2023/03/04 03:57:17;;;;;;;0.30;0.30;;;17.80;30.50;;;;;;4921649;29;20352;-84
2023/03/04 03:59:44;;;;;;;0.30;0.28;;;17.80;30.50;;;;;;4905417;29;20177;-83
2023/03/04 04:02:11;;;;;;;0.32;0.30;;;17.80;30.50;;;;;;4937503;29;20181;-84
2023/03/04 04:04:38;;;;;;;0.47;0.25;;;17.80;30.50;;;;;;4921359;29;20159;-84
2023/03/04 04:07:03;;;;;;;0.15;0.15;;;17.80;30.50;;;;;;4905953;29;20178;-82
2023/03/04 04:09:29;;;;;;;0.57;0.22;;;17.80;30.50;;;;;;4905643;29;20174;-84
2023/03/04 04:11:56;;;;;;;0.63;0.40;;;17.80;30.50;;;;;;4905640;29;20197;-83
2023/03/04 04:14:21;;;;;;;0.52;0.30;;;17.80;30.50;;;;;;4921109;29;20633;-83
2023/03/04 04:16:47;;;;;;;0.25;0.20;;;17.80;30.50;;;;;;4905895;29;20166;-83
2023/03/04 04:19:17;;;;;;;0.28;0.20;;;17.80;30.50;;;;;;4905531;29;20194;-83
2023/03/04 04:21:43;;;;;;;0.30;0.28;;;17.80;30.60;;;;;;4920933;29;20248;-84
2023/03/04 04:24:08;;;;;;;1.50;0.30;;;17.80;31.20;;;;;;4905102;29;20166;-84
2023/03/04 04:26:34;;;;;;;0.63;0.20;;;17.80;30.50;;;;;;4905263;29;20265;-84
2023/03/04 04:29:00;;;;;;;0.20;0.20;;;17.70;30.50;;;;;;4921435;29;20193;-84
2023/03/04 04:31:25;;;;;;;0.73;0.25;;;17.70;30.50;;;;;;4904985;29;20193;-83
2023/03/04 04:33:51;;;;;;;0.30;0.20;;;17.80;30.60;;;;;;4920104;29;20188;-83
2023/03/04 04:36:17;;;;;;;0.20;0.20;;;17.70;30.50;;;;;;4905321;29;20253;-83
2023/03/04 04:38:48;;;;;;;0.45;0.10;;;17.70;30.50;;;;;;4905485;29;20170;-83
2023/03/04 04:41:18;;;;;;;0.52;0.20;;;17.70;30.60;;;;;;4921004;29;20162;-83
2023/03/04 04:43:48;;;;;;;0.75;0.28;;;17.80;30.60;;;;;;4905746;29;20264;-82
2023/03/04 04:46:14;;;;;;;0.47;0.30;;;17.80;30.60;;;;;;4906432;29;20634;-83
2023/03/04 04:48:40;;;;;;;0.25;0.20;;;17.70;30.60;;;;;;4920991;29;20170;-83
2023/03/04 04:51:08;;;;;;;0.65;0.30;;;17.70;30.60;;;;;;4904695;29;20174;-85
2023/03/04 04:53:35;;;;;;;0.30;0.20;;;17.70;30.60;;;;;;4905537;29;20244;-83
2023/03/04 04:56:06;;;;;;;0.20;0.20;;;17.70;30.60;;;;;;4936525;29;20186;-83
2023/03/04 04:58:33;;;;;;;0.20;0.20;;;17.70;30.60;;;;;;4908774;29;20638;-83
2023/03/04 05:01:03;;;;;;;0.60;0.20;;;17.70;30.60;;;;;;4908281;29;20256;-84
2023/03/04 05:03:29;;;;;;;0.45;0.20;;;17.70;30.60;;;;;;4940200;29;20173;-84
2023/03/04 05:05:57;;;;;;;0.65;0.20;;;17.70;30.70;;;;;;4923820;29;20658;-83
2023/03/04 05:08:24;;;;;;;0.25;0.20;;;17.70;30.70;;;;;;4909086;29;20752;-83
2023/03/04 05:10:52;;;;;;;0.30;0.20;;;17.70;30.70;;;;;;4907799;29;20169;-82
2023/03/04 05:13:19;;;;;;;0.35;0.30;;;17.70;30.70;;;;;;4909078;29;20670;-84
2023/03/04 05:15:47;;;;;;;0.32;0.30;;;17.70;30.70;;;;;;4923565;29;20169;-84
2023/03/04 05:18:13;;;;;;;0.95;0.40;;;17.70;30.70;;;;;;4907876;29;20220;-83
2023/03/04 05:20:38;;;;;;;0.52;0.25;;;17.70;30.70;;;;;;4907281;29;20173;-84
2023/03/04 05:23:04;;;;;;;1.10;0.30;;;17.70;30.70;;;;;;4908333;29;20380;-84
2023/03/04 05:25:32;;;;;;;0.32;0.17;;;17.70;30.70;;;;;;4907678;29;20175;-83
2023/03/04 05:27:57;;;;;;;0.45;0.25;;;17.70;30.70;;;;;;4924164;29;20166;-84
2023/03/04 05:30:27;;;;;;;0.43;0.30;;;17.70;30.70;;;;;;4923339;29;20267;-84
2023/03/04 05:32:53;;;;;;;0.47;0.20;;;17.70;30.70;;;;;;4939948;29;20194;-84
2023/03/04 05:35:19;;;;;;;0.82;0.35;;;17.70;30.80;;;;;;4907685;29;20217;-84
2023/03/04 05:37:45;;;;;;;0.40;0.30;;;17.70;30.80;;;;;;4923443;29;20192;-84
2023/03/04 05:40:17;;;;;;;0.20;0.20;;;17.70;30.80;;;;;;4923377;29;20158;-84
2023/03/04 05:42:44;;;;;;;0.63;0.20;;;17.70;30.80;;;;;;4939170;29;20169;-84
2023/03/04 05:45:10;;;;;;;0.65;0.30;;;17.70;30.80;;;;;;4909706;29;20305;-84
2023/03/04 05:47:38;;;;;;;0.30;0.20;;;17.70;30.80;;;;;;4927611;29;20169;-84
2023/03/04 05:50:04;;;;;;;0.20;0.20;;;17.70;30.80;;;;;;4911338;29;20176;-83
2023/03/04 05:52:30;;;;;;;0.57;0.30;;;17.70;30.80;;;;;;4911262;29;20200;-84
2023/03/04 05:54:55;;;;;;;0.20;0.20;;;17.70;30.80;;;;;;4927530;29;20158;-84
2023/03/04 05:57:22;;;;;;;0.77;0.30;;;17.70;30.80;;;;;;4911373;29;20228;-83
2023/03/04 05:59:49;;;;;;;0.73;0.30;;;17.70;30.80;;;;;;4911076;29;20233;-84
2023/03/04 06:02:14;;;;;;;0.38;0.20;;;17.70;30.80;;;;;;4911033;29;20276;-83
2023/03/04 06:04:40;;;;;;;0.73;0.20;;;17.60;30.80;;;;;;4927104;29;20162;-83
2023/03/04 06:07:09;;;;;;;0.35;0.20;;;17.70;30.80;;;;;;4927118;29;20218;-82
2023/03/04 06:09:35;;;;;;;0.45;0.30;;;17.70;30.80;;;;;;4911246;29;20181;-83
2023/03/04 06:12:00;;;;;;;0.20;0.17;;;17.70;30.80;;;;;;4926917;29;20219;-82
2023/03/04 06:14:26;;;;;;;0.30;0.20;;;17.70;30.80;;;;;;4926283;29;20154;-83
2023/03/04 06:16:53;;;;;;;0.35;0.35;;;17.70;30.80;;;;;;4910771;29;20174;-82
2023/03/04 06:19:20;;;;;;;0.90;0.30;;;17.70;30.80;;;;;;4926350;29;20674;-83
2023/03/04 06:21:47;;;;;;;0.60;0.40;;;17.70;30.80;;;;;;4910486;29;20181;-82
2023/03/04 06:24:13;;;;;;;0.30;0.20;;;17.70;30.80;;;;;;4910497;29;20228;-83
2023/03/04 06:26:39;;;;;;;0.38;0.20;;;17.70;30.80;;;;;;4910549;29;20652;-83
2023/03/04 06:29:05;;;;;;;0.20;0.20;;;17.70;30.90;;;;;;4910422;29;20182;-83
2023/03/04 06:31:31;;;;;;;0.28;0.20;;;17.60;30.80;;;;;;4910996;29;20165;-83
2023/03/04 06:33:56;;;;;;;0.85;0.30;;;17.70;30.90;;;;;;4910515;29;20328;-83
2023/03/04 06:36:23;;;;;;;0.40;0.20;;;17.70;30.90;;;;;;4926425;29;20165;-83
2023/03/04 06:38:49;;;;;;;0.17;0.13;;;17.70;31.00;;;;;;4925930;29;20154;-83
2023/03/04 06:41:15;;;;;;;1.75;0.30;;;17.70;30.90;;;;;;4910851;29;20660;-84
2023/03/04 06:43:41;;;;;;;0.43;0.20;;;17.70;30.90;;;;;;4910702;29;20179;-83
2023/03/04 06:46:08;;;;;;;0.47;0.20;;;17.70;30.90;;;;;;4910643;29;20483;-83
2023/03/04 06:48:34;;;;;;;0.30;0.20;;;17.70;30.90;;;;;;4911207;29;20648;-82
2023/03/04 06:51:10;;;;;;;0.55;0.20;;;17.70;30.90;;;;;;4911041;29;20181;-84
2023/03/04 06:53:36;;;;;;;0.50;0.20;;;17.70;30.90;;;;;;4910695;29;20287;-83
2023/03/04 06:56:05;;;;;;;0.30;0.20;;;17.70;31.00;;;;;;4925918;28;20181;-83
2023/03/04 06:58:31;;;;;;;0.93;0.30;;;17.70;31.00;;;;;;4925115;29;20257;-83
2023/03/04 07:01:11;;;;;;;0.32;0.20;;;17.70;31.00;;;;;;4910484;29;20224;-83
2023/03/04 07:03:37;;;;;;;0.85;0.30;;;17.60;31.00;;;;;;4912001;29;20173;-84
2023/03/04 07:06:06;;;;;;;0.30;0.30;;;17.70;31.00;;;;;;4925835;29;20286;-84
2023/03/04 07:08:36;;;;;;;0.52;0.30;;;17.60;30.90;;;;;;4909900;29;20200;-83
2023/03/04 07:11:02;;;;;;;0.60;0.22;;;17.70;31.00;;;;;;4941296;29;20158;-83
2023/03/04 07:13:28;;;;;;;0.30;0.20;;;17.60;30.90;;;;;;4925914;29;20208;-83
2023/03/04 07:15:55;;;;;;;0.20;0.10;;;17.70;31.00;;;;;;4925446;29;20533;-84
2023/03/04 07:18:22;;;;;;;0.25;0.20;;;17.60;30.90;;;;;;4909917;29;20652;-84
2023/03/04 07:20:51;;;;;;;0.65;0.20;;;17.60;30.90;;;;;;4925853;29;20176;-83
2023/03/04 07:23:18;;;;;;;0.30;0.20;;;17.70;31.00;;;;;;4883312;29;20183;-83
2023/03/04 07:25:49;;;;;;;0.95;0.22;;;17.70;31.00;;;;;;4883749;29;20183;-84
2023/03/04 07:28:16;;;;;;;1.33;0.32;;;17.70;31.00;;;;;;4853421;29;20380;-84
2023/03/04 07:30:42;;;;;;;0.30;0.20;;;17.70;31.00;;;;;;4852681;29;20243;-82
2023/03/04 07:33:08;;;;;;;0.30;0.20;;;17.70;31.00;;;;;;4852962;29;20236;-83
2023/03/04 07:35:35;;;;;;;0.38;0.20;;;17.70;30.90;;;;;;4868405;29;20663;-83
2023/03/04 07:38:01;;;;;;;1.08;0.30;;;17.70;30.90;;;;;;4852136;29;20251;-82
2023/03/04 07:40:27;;;;;;;0.55;0.20;;;17.70;30.90;;;;;;4827908;29;20637;-83
2023/03/04 07:42:57;;;;;;;1.55;0.25;;;17.70;30.90;;;;;;4813328;29;20186;-84
2023/03/04 07:45:22;;;;;;;0.20;0.15;;;17.70;30.90;;;;;;4813474;29;20189;-83
2023/03/04 07:47:48;;;;;;;0.20;0.20;;;17.80;30.90;;;;;;4812570;29;20187;-83
2023/03/04 07:50:15;;;;;;;0.20;0.20;;;17.80;30.90;;;;;;4827861;29;20177;-83
2023/03/04 07:52:42;;;;;;;0.20;0.20;;;17.80;30.80;;;;;;4827783;29;20211;-84
2023/03/04 07:55:09;;;;;;;0.50;0.30;;;17.80;30.90;;;;;;4844563;29;20184;-83
2023/03/04 07:57:34;;;;;;;0.38;0.30;;;17.80;30.90;;;;;;4862664;29;20379;-82
2023/03/04 08:00:01;;;;;;;0.20;0.20;;;17.80;30.90;;;;;;4852108;29;20631;-84
2023/03/04 08:02:27;;;;;;;0.30;0.22;;;17.80;30.80;;;;;;4867132;29;20164;-82
2023/03/04 08:04:52;;;;;;;0.40;0.30;;;17.80;30.80;;;;;;4865611;29;20682;-82
2023/03/04 08:07:18;;;;;;;0.25;0.20;;;17.70;30.80;;;;;;4868661;29;20209;-84
2023/03/04 08:09:48;;;;;;;0.30;0.20;;;17.80;30.90;;;;;;4851906;29;20180;-83
2023/03/04 08:12:14;;;;;;;0.57;0.20;;;17.80;30.80;;;;;;4867041;29;20207;-83
2023/03/04 08:14:39;;;;;;;0.22;0.13;;;17.80;30.80;;;;;;4851300;29;20184;-84
2023/03/04 08:17:05;;;;;;;0.35;0.30;;;17.80;30.80;;;;;;4859172;29;20187;-83
2023/03/04 08:19:33;;;;;;;0.43;0.20;;;17.80;30.80;;;;;;4888876;29;20174;-84
2023/03/04 08:22:01;;;;;;;0.20;0.20;;;17.80;30.80;;;;;;4905747;29;20246;-82
2023/03/04 08:24:29;;;;;;;0.45;0.30;;;17.70;30.80;;;;;;4904944;29;20674;-84
2023/03/04 08:26:54;;;;;;;0.28;0.28;;;17.80;30.80;;;;;;4904452;29;20174;-84
2023/03/04 08:29:21;;;;;;;0.13;0.10;;;17.80;30.80;;;;;;4889061;29;20175;-84
2023/03/04 08:31:49;;;;;;;0.32;0.10;;;17.80;30.80;;;;;;4889029;29;20178;-83
2023/03/04 08:34:18;;;;;;;0.82;0.20;;;17.90;30.80;;;;;;4905557;29;20163;-84
2023/03/04 08:36:44;;;;;;;0.47;0.20;;;17.90;30.70;;;;;;4905146;29;20159;-83
2023/03/04 08:39:12;;;;;;;0.38;0.30;;;17.90;30.60;;;;;;4889837;29;20174;-84
2023/03/04 08:41:40;;;;;;;0.50;0.20;;;18.00;30.70;;;;;;4888603;29;20215;-83
2023/03/04 08:44:10;;;;;;;0.57;0.40;;;18.00;30.60;;;;;;4889174;29;20681;-84
2023/03/04 08:46:37;;;;;;;0.63;0.40;;;18.00;30.50;;;;;;4920852;29;20155;-84
2023/03/04 08:49:03;;;;;;;0.63;0.20;;;18.10;30.50;;;;;;4905470;29;20202;-84
2023/03/04 08:51:29;;;;;;;0.20;0.20;;;18.00;30.30;;;;;;4891319;29;20171;-84
2023/03/04 08:53:57;;;;;;;0.55;0.20;;;18.10;30.30;;;;;;4891227;29;20217;-83
2023/03/04 08:56:23;;;;;;;0.55;0.30;;;18.20;30.90;;;;;;4908473;29;20151;-85
2023/03/04 08:58:51;;;;;;;0.13;0.10;;;18.20;30.00;;;;;;4928134;29;20168;-84
2023/03/04 09:01:20;;;;;;;1.08;0.20;;;18.20;30.10;;;;;;4912648;29;20225;-84
2023/03/04 09:03:53;;;;;;;0.10;0.10;;;18.20;30.00;;;;;;4904610;29;20183;-84
2023/03/04 09:06:20;;;;;;;0.40;0.20;;;18.30;30.10;;;;;;4889686;29;20197;-84
2023/03/04 09:08:46;;;;;;;0.40;0.20;;;18.30;30.00;;;;;;4905288;29;20197;-84
2023/03/04 09:11:14;;;;;;;0.77;0.20;;;18.30;30.00;;;;;;4905223;29;20163;-84
2023/03/04 09:13:39;;;;;;;0.20;0.20;;;18.30;30.10;;;;;;4921099;29;20230;-84
2023/03/04 09:16:13;;;;;;;0.20;0.20;;;18.30;30.10;;;;;;4905482;29;20190;-84
2023/03/04 09:18:39;;;;;;;0.85;0.20;;;18.20;30.30;;;;;;4889489;29;20204;-83
2023/03/04 09:21:07;;;;;;;0.32;0.15;;;18.30;30.10;;;;;;4895045;29;20230;-83
2023/03/04 09:23:35;;;;;;;0.40;0.30;;;18.20;30.10;;;;;;4895698;29;20181;-84
2023/03/04 09:26:01;;;;;;;0.30;0.20;;;18.30;30.20;;;;;;4895204;29;20189;-82
2023/03/04 09:28:28;;;;;;;1.95;0.30;;;18.20;30.30;;;;;;4926254;29;20190;-83
2023/03/04 09:30:57;;;;;;;0.35;0.20;;;18.20;30.30;;;;;;4916179;29;20158;-85
2023/03/04 09:33:28;;;;;;;0.75;0.25;;;18.20;30.10;;;;;;4902795;29;20209;-84
2023/03/04 09:35:57;;;;;;;0.50;0.22;;;18.30;30.10;;;;;;4934552;29;20645;-85
2023/03/04 09:38:23;;;;;;;0.30;0.28;;;18.30;30.00;;;;;;4917569;29;20175;-84
2023/03/04 09:40:54;;;;;;;0.55;0.20;;;18.30;29.90;;;;;;4928856;28;20211;-85
2023/03/04 09:43:23;;;;;;;1.20;0.20;;;18.30;30.00;;;;;;4957348;29;20165;-85
2023/03/04 09:45:52;;;;;;;0.32;0.20;;;18.30;30.00;;;;;;4941529;29;20196;-85
2023/03/04 09:48:21;;;;;;;0.30;0.20;;;18.40;30.00;;;;;;4902505;29;20604;-86
2023/03/04 09:51:05;;;;;;;0.47;0.28;;;18.30;30.00;;;;;;4887680;29;20320;-85
2023/03/04 09:53:59;;;;;;;0.30;0.15;;;18.30;30.10;;;;;;4901815;29;20206;-84
2023/03/04 09:56:25;;;;;;;0.35;0.30;;;18.30;29.90;;;;;;4916401;29;20269;-85
2023/03/04 09:59:05;;;;;;;1.02;0.20;;;18.40;29.90;;;;;;4885988;29;20194;-85
2023/03/04 10:01:44;;;;;;;0.45;0.20;;;18.40;29.90;;;;;;4902390;29;20190;-85
2023/03/04 10:04:45;;;;;;;1.55;0.20;;;18.40;30.10;;;;;;4886051;29;20194;-85
2023/03/04 10:07:18;;;;;;;0.28;0.10;;;18.30;30.20;;;;;;4899863;29;20182;-85
2023/03/04 10:10:09;;;;;;;0.32;0.10;;;18.30;30.10;;;;;;4898959;29;20207;-84
2023/03/04 10:12:39;;;;;;;0.40;0.20;;;18.30;30.40;;;;;;4858107;29;20225;-85
2023/03/04 10:15:16;;;;;;;0.20;0.20;;;18.30;30.50;;;;;;4823319;29;20706;-85
2023/03/04 10:17:45;;;;;;;3.42;0.50;;;18.30;30.40;;;;;;4807449;29;20185;-84
2023/03/04 10:20:50;;;;;;;0.82;0.20;;;18.30;30.60;;;;;;4857110;29;20192;-85
2023/03/04 10:23:25;;;;;;;0.47;0.10;;;18.30;30.60;;;;;;4839591;29;20189;-85
2023/03/04 10:26:00;;;;;;;0.20;0.20;;;18.40;30.10;;;;;;4826232;29;20199;-86
2023/03/04 10:28:28;;;;;;;2.33;0.30;;;18.40;30.10;;;;;;4842165;29;20200;-85
2023/03/04 10:31:01;;;;;;;6.25;0.57;;;18.50;30.30;;;;;;4836465;29;20198;-85
2023/03/04 10:33:29;;;;;;;4.80;0.45;;;18.50;30.40;;;;;;4834592;29;20217;-85
2023/03/04 10:36:28;;;;;;;7.35;0.73;;;18.40;30.20;;;;;;4836657;29;20700;-85
2023/03/04 10:39:08;;;;;;;7.82;1.00;;;18.50;30.20;;;;;;4820022;29;20186;-85
2023/03/04 10:41:34;;;;;;;3.70;0.40;;;18.50;30.10;;;;;;4837216;29;20211;-85
2023/03/04 10:44:16;;;;;;;4.22;0.70;;;18.50;30.10;;;;;;4836581;29;20194;-83
2023/03/04 10:46:54;;;;;;;2.22;0.40;;;18.50;30.20;;;;;;4834254;29;20261;-85
2023/03/04 10:49:21;;;;;;;5.25;0.50;;;18.50;30.20;;;;;;4838105;29;20191;-85
2023/03/04 10:51:49;;;;;;;6.75;0.38;;;18.50;30.20;;;;;;4896322;29;20171;-85
2023/03/04 10:54:28;;;;;;;2.15;0.50;;;18.50;30.40;;;;;;4891527;29;20180;-86
2023/03/04 10:57:15;;;;;;;10.27;0.70;;;18.50;30.50;;;;;;4891365;29;20231;-85
2023/03/04 10:59:54;;;;;;;6.05;0.55;;;18.50;30.50;;;;;;4865373;29;20190;-85
2023/03/04 11:02:23;;;;;;;10.93;0.60;;;18.50;30.60;;;;;;4880280;29;20682;-85
2023/03/04 11:04:52;;;;;;;7.03;0.70;;;18.50;30.70;;;;;;4897122;29;20255;-85
2023/03/04 11:07:25;;;;;;;10.43;0.70;;;18.50;30.60;;;;;;4866831;29;20175;-84
2023/03/04 11:10:06;;;;;;;4.65;0.60;;;18.50;30.60;;;;;;4896031;29;20194;-85
2023/03/04 11:12:34;;;;;;;3.58;0.40;;;18.50;30.50;;;;;;4881233;29;20217;-85
2023/03/04 11:15:18;;;;;;;4.05;0.63;;;18.50;30.80;;;;;;4882150;29;20184;-85
2023/03/04 11:17:47;;;;;;;3.97;0.52;;;18.60;30.80;;;;;;4881886;29;20187;-85
2023/03/04 11:20:25;;;;;;;3.92;0.80;;;18.60;30.50;;;;;;4881448;29;20215;-85
2023/03/04 11:22:52;;;;;;;4.38;0.30;;;18.60;30.60;;;;;;4865636;29;20178;-85
2023/03/04 11:25:26;;;;;;;1.85;0.30;;;18.60;30.60;;;;;;4889680;29;20510;-86
2023/03/04 11:27:55;;;;;;;0.25;0.25;;;18.60;30.60;;;;;;4914017;29;20159;-85
2023/03/04 11:30:42;;;;;;;2.58;0.40;;;18.60;30.50;;;;;;4899811;29;20175;-85
2023/03/04 11:33:21;;;;;;;3.90;0.50;;;18.60;30.40;;;;;;4914759;29;20206;-87
2023/03/04 11:36:13;;;;;;;5.65;0.40;;;18.60;30.70;;;;;;4900650;29;20178;-85
2023/03/04 11:38:41;;;;;;;2.20;0.40;;;18.60;30.80;;;;;;4904466;29;20175;-85
2023/03/04 11:41:19;;;;;;;2.00;0.40;;;18.60;30.60;;;;;;4899649;29;20171;-84
2023/03/04 11:43:50;;;;;;;1.45;0.35;;;18.60;30.50;;;;;;4899245;29;20210;-85
2023/03/04 11:46:50;;;;;;;1.42;0.40;;;18.60;30.70;;;;;;4915197;29;20238;-84
2023/03/04 11:49:48;;;;;;;0.40;0.30;;;18.60;30.60;;;;;;4904997;29;20269;-84
2023/03/04 11:52:50;;;;;;;3.85;0.20;;;18.60;30.60;;;;;;4930980;29;20203;-85
2023/03/04 11:55:32;;;;;;;2.65;0.40;;;18.60;30.40;;;;;;4930773;29;20181;-85
2023/03/04 11:58:28;;;;;;;5.60;0.30;;;18.70;30.60;;;;;;4927975;29;20230;-85
2023/03/04 12:01:05;;;;;;;1.23;0.50;;;18.70;30.80;;;;;;4929669;29;20191;-85
2023/03/04 12:03:45;;;;;;;1.38;0.35;;;18.60;30.50;;;;;;4881712;29;20203;-84
2023/03/04 12:06:31;;;;;;;0.77;0.20;;;18.60;30.50;;;;;;4893546;29;20210;-83
2023/03/04 12:09:13;;;;;;;5.95;0.45;;;18.70;30.60;;;;;;4895513;29;20798;-84
2023/03/04 12:12:04;;;;;;;3.67;0.40;;;18.60;30.80;;;;;;4908686;29;20194;-84
2023/03/04 12:14:51;;;;;;;6.40;0.50;;;18.70;30.70;;;;;;4890049;29;20200;-84
2023/03/04 12:17:38;;;;;;;6.90;0.85;;;18.70;30.70;;;;;;4876057;29;20183;-84
2023/03/04 12:20:15;;;;;;;5.72;0.57;;;18.60;30.60;;;;;;4891566;29;20190;-84
2023/03/04 12:22:45;;;;;;;8.48;0.60;;;18.70;30.60;;;;;;4892364;29;20185;-84
2023/03/04 12:25:36;;;;;;;9.65;1.35;;;18.70;30.50;;;;;;4890049;29;20182;-84
2023/03/04 12:28:18;;;;;;;14.50;1.15;;;18.70;30.60;;;;;;4906369;29;20206;-83
2023/03/04 12:31:08;;;;;;;9.35;0.75;;;18.60;30.70;;;;;;4892352;29;20179;-83
2023/03/04 12:33:48;;;;;;;19.20;1.00;;;18.70;30.60;;;;;;4942592;29;20637;-83
2023/03/04 12:36:29;;;;;;;23.65;1.50;;;18.70;30.50;;;;;;4942403;29;20635;-83
2023/03/04 12:38:59;;;;;;;15.00;1.65;;;18.70;30.50;;;;;;4911886;29;20174;-84
2023/03/04 12:41:48;;;;;;;19.90;1.00;;;18.70;30.40;;;;;;4942261;29;20580;-84
2023/03/04 12:44:18;;;;;;;16.20;1.10;;;18.70;31.00;;;;;;4944534;29;20165;-83
2023/03/04 12:47:10;;;;;;;23.33;1.70;;;18.70;31.20;;;;;;4928340;29;20174;-84
2023/03/04 12:50:02;;;;;;;28.13;1.65;;;18.70;30.50;;;;;;4930339;29;20652;-84
2023/03/04 12:52:43;;;;;;;21.48;1.75;;;18.70;30.40;;;;;;4927838;29;20201;-83
2023/03/04 12:55:15;;;;;;;29.75;1.77;;;18.70;31.00;;;;;;4926899;29;20166;-84
2023/03/04 12:57:41;;;;;;;12.45;1.10;;;18.70;30.20;;;;;;4927532;29;20240;-84
2023/03/04 13:00:33;;;;;;;20.63;1.73;;;18.70;30.10;;;;;;4911844;29;20277;-83